createdAt,value
2024-03-02T00:02:41.667Z,7.36
2024-03-02T00:05:43.479Z,7.39
2024-03-02T00:08:45.099Z,7.39
2024-03-02T00:11:46.542Z,7.40
2024-03-02T00:14:48.140Z,7.39
2024-03-02T00:17:50.010Z,7.38
2024-03-02T00:20:51.430Z,7.39
2024-03-02T00:23:53.275Z,7.36
2024-03-02T00:26:55.109Z,7.37
2024-03-02T00:29:56.794Z,7.40
2024-03-02T00:32:58.665Z,7.44
2024-03-02T00:36:00.556Z,7.47
2024-03-02T00:39:02.517Z,7.51
2024-03-02T00:42:04.570Z,7.46
2024-03-02T00:45:06.037Z,7.51
2024-03-02T00:48:07.990Z,7.54
2024-03-02T00:51:09.456Z,7.55
2024-03-02T00:54:10.869Z,7.55
2024-03-02T00:57:12.499Z,7.56
2024-03-02T01:00:14.369Z,7.55
2024-03-02T01:03:15.860Z,7.58
2024-03-02T01:06:17.472Z,7.59
2024-03-02T01:09:19.635Z,7.56
2024-03-02T01:12:21.281Z,7.57
2024-03-02T01:15:23.073Z,7.57
2024-03-02T01:18:24.844Z,7.60
2024-03-02T01:21:26.286Z,7.58
2024-03-02T01:24:28.081Z,7.62
2024-03-02T01:27:29.863Z,7.64
2024-03-02T01:30:31.324Z,7.59
2024-03-02T01:33:33.168Z,7.61
2024-03-02T01:36:35.027Z,7.64
2024-03-02T01:39:36.950Z,7.64
2024-03-02T01:42:38.788Z,7.61
2024-03-02T01:45:40.662Z,7.57
2024-03-02T01:48:42.525Z,7.56
2024-03-02T01:51:44.534Z,7.53
2024-03-02T01:54:46.087Z,7.46
2024-03-02T01:57:47.835Z,7.46
2024-03-02T02:00:49.402Z,7.47
2024-03-02T02:03:51.111Z,7.43
2024-03-02T02:06:53.163Z,7.45
2024-03-02T02:09:55.128Z,7.45
2024-03-02T02:12:56.638Z,7.45
2024-03-02T02:15:58.733Z,7.47
2024-03-02T02:19:00.402Z,7.43
2024-03-02T02:22:01.913Z,7.44
2024-03-02T02:25:03.752Z,7.43
2024-03-02T02:28:05.523Z,7.37
2024-03-02T02:31:07.032Z,7.30
2024-03-02T02:34:08.903Z,7.36
2024-03-02T02:37:10.374Z,7.36
2024-03-02T02:40:12.130Z,7.35
2024-03-02T02:43:13.871Z,7.38
2024-03-02T02:46:15.322Z,7.37
2024-03-02T02:49:17.270Z,7.15
2024-03-02T02:52:19.058Z,7.39
2024-03-02T02:55:20.472Z,7.36
2024-03-02T02:58:22.262Z,7.34
2024-03-02T03:01:23.813Z,7.41
2024-03-02T03:04:25.283Z,7.43
2024-03-02T03:07:26.706Z,7.43
2024-03-02T03:10:28.437Z,7.47
2024-03-02T03:13:29.865Z,7.56
2024-03-02T03:16:31.610Z,7.58
2024-03-02T03:19:33.368Z,7.60
2024-03-02T03:22:34.863Z,7.61
2024-03-02T03:25:36.683Z,7.60
2024-03-02T03:28:38.419Z,7.63
2024-03-02T03:31:39.840Z,7.64
2024-03-02T03:34:41.623Z,7.70
2024-03-02T03:37:43.327Z,7.69
2024-03-02T03:40:44.771Z,7.73
2024-03-02T03:43:46.641Z,7.70
2024-03-02T03:46:48.370Z,7.76
2024-03-02T03:49:50.138Z,7.79
2024-03-02T03:52:51.593Z,7.79
2024-03-02T03:55:53.018Z,7.76
2024-03-02T03:58:54.453Z,7.69
2024-03-02T04:01:56.398Z,7.76
2024-03-02T04:04:57.815Z,7.73
2024-03-02T04:07:59.622Z,7.70
2024-03-02T04:11:01.548Z,7.70
2024-03-02T04:14:02.943Z,7.69
2024-03-02T04:17:04.847Z,7.68
2024-03-02T04:20:06.651Z,7.72
2024-03-02T04:23:08.080Z,7.76
2024-03-02T04:26:09.510Z,7.76
2024-03-02T04:29:11.313Z,7.80
2024-03-02T04:32:12.786Z,7.78
2024-03-02T04:35:14.556Z,7.73
2024-03-02T04:38:16.338Z,7.79
2024-03-02T04:41:17.738Z,7.81
2024-03-02T04:44:19.482Z,7.85
2024-03-02T04:47:21.214Z,7.79
2024-03-02T04:50:22.824Z,7.77
2024-03-02T04:53:24.651Z,7.76
2024-03-02T04:56:26.127Z,7.79
2024-03-02T04:59:27.771Z,7.74
2024-03-02T05:02:29.203Z,7.75
2024-03-02T05:05:30.627Z,7.71
2024-03-02T05:08:32.055Z,7.66
2024-03-02T05:11:34.035Z,7.61
2024-03-02T05:14:35.455Z,7.57
2024-03-02T05:17:37.087Z,7.44
2024-03-02T05:20:38.536Z,7.49
2024-03-02T05:23:39.961Z,7.53
2024-03-02T05:26:41.728Z,7.46
2024-03-02T05:29:43.573Z,7.49
2024-03-02T05:32:44.987Z,7.51
2024-03-02T05:35:46.700Z,7.52
2024-03-02T05:38:48.449Z,7.51
2024-03-02T05:41:49.857Z,7.36
2024-03-02T05:44:51.627Z,7.38
2024-03-02T05:47:53.722Z,7.46
2024-03-02T05:50:55.588Z,7.43
2024-03-02T05:53:57.441Z,7.34
2024-03-02T05:56:58.834Z,7.47
2024-03-02T06:00:00.774Z,7.36
2024-03-02T06:03:02.551Z,7.31
2024-03-02T06:06:03.973Z,7.43
2024-03-02T06:09:05.571Z,7.43
2024-03-02T06:12:07.157Z,7.39
2024-03-02T06:15:08.572Z,7.44
2024-03-02T06:18:10.364Z,7.30
2024-03-02T06:21:12.176Z,7.39
2024-03-02T06:24:13.587Z,7.43
2024-03-02T06:27:15.537Z,7.42
2024-03-02T06:30:17.479Z,7.54
2024-03-02T06:33:18.998Z,7.47
2024-03-02T06:36:20.482Z,7.53
2024-03-02T06:39:22.244Z,7.47
2024-03-02T06:42:23.694Z,7.54
2024-03-02T06:45:25.584Z,7.52
2024-03-02T06:48:27.069Z,7.55
2024-03-02T06:51:28.876Z,7.63
2024-03-02T06:54:30.656Z,7.46
2024-03-02T06:57:32.121Z,7.54
2024-03-02T07:00:33.802Z,7.63
2024-03-02T07:03:35.647Z,7.59
2024-03-02T07:06:37.104Z,7.55
2024-03-02T07:09:38.876Z,7.68
2024-03-02T07:12:40.776Z,7.69
2024-03-02T07:15:42.242Z,7.54
2024-03-02T07:18:43.760Z,7.51
2024-03-02T07:21:45.774Z,7.66
2024-03-02T07:24:47.300Z,7.09
2024-03-02T07:27:49.020Z,7.68
2024-03-02T07:30:50.479Z,7.73
2024-03-02T07:33:51.959Z,7.73
2024-03-02T07:36:53.617Z,7.85
2024-03-02T07:39:55.098Z,7.84
2024-03-02T07:42:56.740Z,7.83
2024-03-02T07:45:58.606Z,7.95
2024-03-02T07:49:00.419Z,7.85
2024-03-02T07:52:01.862Z,7.95
2024-03-02T07:55:03.620Z,7.96
2024-03-02T07:58:05.466Z,8.08
2024-03-02T08:01:07.414Z,7.98
2024-03-02T08:04:09.199Z,7.98
2024-03-02T08:07:10.954Z,8.25
2024-03-02T08:10:12.671Z,8.22
2024-03-02T08:13:14.633Z,8.24
2024-03-02T08:16:16.077Z,8.38
2024-03-02T08:19:17.743Z,8.54
2024-03-02T08:22:19.512Z,8.44
2024-03-02T08:25:23.632Z,8.42
2024-03-02T08:28:25.485Z,8.38
2024-03-02T08:31:27.144Z,8.40
2024-03-02T08:34:28.592Z,8.23
2024-03-02T08:37:30.409Z,8.28
2024-03-02T08:40:32.193Z,8.40
2024-03-02T08:43:33.616Z,8.66
2024-03-02T08:46:35.069Z,8.68
2024-03-02T08:49:36.792Z,8.59
2024-03-02T08:52:38.212Z,8.53
2024-03-02T08:55:40.038Z,8.53
2024-03-02T08:58:41.916Z,8.65
2024-03-02T09:01:43.456Z,8.60
2024-03-02T09:04:45.326Z,8.69
2024-03-02T09:07:47.208Z,8.61
2024-03-02T09:10:48.936Z,8.54
2024-03-02T09:13:50.673Z,8.60
2024-03-02T09:16:52.090Z,8.44
2024-03-02T09:19:54.110Z,8.41
2024-03-02T09:22:55.893Z,8.73
2024-03-02T09:25:57.370Z,8.76
2024-03-02T09:28:58.993Z,8.83
2024-03-02T09:32:00.427Z,8.74
2024-03-02T09:35:01.847Z,8.77
2024-03-02T09:38:03.558Z,8.89
2024-03-02T09:41:05.330Z,8.79
2024-03-02T09:44:06.986Z,8.94
2024-03-02T09:47:08.877Z,9.40
2024-03-02T09:50:10.651Z,9.50
2024-03-02T09:53:12.165Z,9.58
2024-03-02T09:56:13.654Z,9.99
2024-03-02T09:59:15.388Z,10.52
2024-03-02T10:02:16.814Z,10.30
2024-03-02T10:05:18.584Z,10.84
2024-03-02T10:08:20.347Z,10.73
2024-03-02T10:11:22.090Z,10.75
2024-03-02T10:14:23.794Z,10.87
2024-03-02T10:17:25.694Z,10.69
2024-03-02T10:20:27.490Z,10.62
2024-03-02T10:23:29.101Z,10.88
2024-03-02T10:26:30.538Z,11.13
2024-03-02T10:29:31.975Z,11.43
2024-03-02T10:32:33.437Z,10.93
2024-03-02T10:35:34.863Z,11.69
2024-03-02T10:38:36.284Z,11.91
2024-03-02T10:41:38.017Z,11.57
2024-03-02T10:44:39.456Z,11.23
2024-03-02T10:47:41.367Z,11.73
2024-03-02T10:50:42.850Z,11.55
2024-03-02T10:53:44.279Z,12.16
2024-03-02T10:56:45.955Z,11.92
2024-03-02T10:59:47.752Z,12.43
2024-03-02T11:02:49.179Z,12.35
2024-03-02T11:05:50.639Z,13.00
2024-03-02T11:08:52.475Z,13.15
2024-03-02T11:11:53.906Z,13.23
2024-03-02T11:14:55.518Z,13.61
2024-03-02T11:17:56.964Z,13.77
2024-03-02T11:20:58.453Z,12.71
2024-03-02T11:24:00.034Z,13.64
2024-03-02T11:27:01.467Z,13.63
2024-03-02T11:30:02.952Z,13.60
2024-03-02T11:33:04.848Z,14.56
2024-03-02T11:39:08.388Z,13.87
2024-03-02T11:42:10.351Z,13.76
2024-03-02T11:45:11.745Z,13.41
2024-03-02T11:48:13.442Z,13.59
2024-03-02T11:51:15.434Z,13.87
2024-03-02T11:54:16.861Z,14.10
2024-03-02T11:57:18.667Z,13.81
2024-03-02T12:00:20.520Z,14.34
2024-03-02T12:03:21.995Z,14.29
2024-03-02T12:06:23.722Z,14.20
2024-03-02T12:09:25.536Z,14.32
2024-03-02T12:12:27.018Z,14.39
2024-03-02T12:15:28.634Z,14.02
2024-03-02T12:18:30.246Z,14.05
2024-03-02T12:21:32.082Z,14.19
2024-03-02T12:24:33.579Z,14.31
2024-03-02T12:27:35.065Z,13.85
2024-03-02T12:30:37.163Z,14.02
2024-03-02T12:33:38.982Z,14.12
2024-03-02T12:36:40.538Z,14.06
2024-03-02T12:39:42.395Z,13.99
2024-03-02T12:42:43.961Z,14.11
2024-03-02T12:45:45.438Z,13.71
2024-03-02T12:48:47.222Z,13.80
2024-03-02T12:51:49.163Z,13.63
2024-03-02T12:54:50.716Z,13.98
2024-03-02T12:57:52.522Z,13.81
2024-03-02T13:00:54.059Z,14.10
2024-03-02T13:03:55.728Z,14.81
2024-03-02T13:06:57.509Z,14.78
2024-03-02T13:09:59.217Z,14.27
2024-03-02T13:13:01.039Z,14.26
2024-03-02T13:16:02.923Z,14.01
2024-03-02T13:19:04.490Z,13.71
2024-03-02T13:22:06.636Z,13.77
2024-03-02T13:25:08.443Z,13.67
2024-03-02T13:28:10.152Z,14.44
2024-03-02T13:31:12.236Z,14.70
2024-03-02T13:34:14.022Z,14.92
2024-03-02T13:37:15.468Z,15.29
2024-03-02T13:40:17.210Z,15.51
2024-03-02T13:43:19.021Z,15.16
2024-03-02T13:46:20.475Z,15.04
2024-03-02T13:49:22.165Z,14.80
2024-03-02T13:52:23.600Z,14.98
2024-03-02T13:55:25.030Z,15.02
2024-03-02T13:58:26.811Z,15.14
2024-03-02T14:01:28.336Z,15.14
2024-03-02T14:04:30.203Z,15.25
2024-03-02T14:07:31.613Z,14.99
2024-03-02T14:10:33.373Z,15.12
2024-03-02T14:13:35.113Z,14.96
2024-03-02T14:16:36.865Z,14.84
2024-03-02T14:19:38.285Z,14.74
2024-03-02T14:22:40.003Z,14.14
2024-03-02T14:25:41.770Z,14.20
2024-03-02T14:28:49.795Z,13.58
2024-03-02T14:31:53.370Z,13.90
2024-03-02T15:20:02.874Z,13.86
2024-03-02T15:23:04.400Z,14.12
2024-03-02T15:26:06.119Z,14.15
2024-03-02T15:29:07.581Z,13.97
2024-03-02T15:32:09.279Z,13.87
2024-03-02T15:35:11.125Z,13.74
2024-03-02T15:38:21.860Z,13.45
2024-03-02T15:41:30.542Z,13.08
2024-03-02T15:44:32.532Z,12.98
2024-03-02T15:47:34.044Z,12.82
2024-03-02T15:50:35.511Z,12.68
2024-03-02T15:53:37.327Z,12.50
2024-03-02T15:56:38.861Z,12.45
2024-03-02T15:59:40.341Z,12.35
2024-03-02T16:02:42.136Z,12.17
2024-03-02T16:05:43.570Z,12.09
2024-03-02T16:08:45.414Z,12.00
2024-03-02T16:11:47.197Z,12.03
2024-03-02T16:14:48.643Z,11.94
2024-03-02T16:17:50.396Z,11.83
2024-03-02T16:20:52.157Z,11.60
2024-03-02T16:23:53.599Z,11.54
2024-03-02T16:26:55.235Z,11.42
2024-03-02T16:29:56.662Z,11.36
2024-03-02T16:32:58.409Z,11.31
2024-03-02T16:36:00.209Z,11.22
2024-03-02T16:39:01.701Z,11.07
2024-03-02T16:42:03.412Z,11.00
2024-03-02T16:45:05.161Z,10.86
2024-03-02T16:48:06.731Z,10.82
2024-03-02T16:51:08.324Z,10.73
2024-03-02T16:54:10.200Z,10.62
2024-03-02T16:57:11.710Z,10.15
2024-03-02T17:00:13.205Z,10.54
2024-03-02T17:03:14.988Z,10.45
2024-03-02T17:06:16.446Z,10.37
2024-03-02T17:09:18.235Z,10.30
2024-03-02T17:12:20.019Z,10.23
2024-03-02T17:15:21.982Z,10.14
2024-03-02T17:18:23.656Z,10.03
2024-03-02T17:21:25.523Z,9.92
2024-03-02T17:24:27.176Z,9.88
2024-03-02T17:27:28.951Z,9.83
2024-03-02T17:30:30.450Z,9.81
2024-03-02T17:33:32.313Z,9.80
2024-03-02T17:36:34.225Z,9.77
2024-03-02T17:39:35.733Z,9.71
2024-03-02T17:42:37.519Z,9.72
2024-03-02T17:45:39.298Z,9.66
2024-03-02T17:48:40.910Z,9.55
2024-03-02T17:51:42.902Z,9.57
2024-03-02T17:54:44.765Z,9.57
2024-03-02T17:57:46.226Z,9.55
2024-03-02T18:00:47.782Z,9.48
2024-03-02T18:03:49.559Z,9.42
2024-03-02T18:06:51.034Z,9.35
2024-03-02T18:09:52.616Z,9.24
2024-03-02T18:12:54.453Z,9.20
2024-03-02T18:15:55.956Z,9.20
2024-03-02T18:18:57.837Z,9.19
2024-03-02T18:21:59.757Z,9.11
2024-03-02T18:25:01.397Z,9.12
2024-03-02T18:28:03.272Z,9.08
2024-03-02T18:31:04.798Z,9.09
2024-03-02T18:34:06.641Z,9.08
2024-03-02T18:37:08.204Z,9.07
2024-03-02T18:40:09.782Z,9.03
2024-03-02T18:43:11.910Z,9.02
2024-03-02T18:46:13.749Z,9.01
2024-03-02T18:49:15.290Z,8.98
2024-03-02T18:52:17.142Z,8.93
2024-03-02T18:55:19.162Z,8.92
2024-03-02T18:58:20.655Z,8.94
2024-03-02T19:01:22.502Z,8.89
2024-03-02T19:04:23.985Z,8.90
2024-03-02T19:07:25.434Z,8.86
2024-03-02T19:10:26.881Z,8.85
2024-03-02T19:13:28.381Z,8.78
2024-03-02T19:16:29.828Z,8.78
2024-03-02T19:19:31.621Z,8.76
2024-03-02T19:22:33.469Z,8.73
2024-03-02T19:25:34.917Z,8.71
2024-03-02T19:28:36.898Z,8.70
2024-03-02T19:31:38.792Z,8.68
2024-03-02T19:34:40.441Z,8.69
2024-03-02T19:37:42.707Z,8.67
2024-03-02T19:40:44.526Z,8.66
2024-03-02T19:43:45.986Z,8.65
2024-03-02T19:46:47.798Z,8.65
2024-03-02T19:49:49.304Z,8.63
2024-03-02T19:52:51.209Z,8.62
2024-03-02T19:55:52.926Z,8.62
2024-03-02T19:58:54.385Z,8.60
2024-03-02T20:01:55.903Z,8.61
2024-03-02T20:04:57.742Z,8.61
2024-03-02T20:07:59.199Z,8.59
2024-03-02T20:11:00.879Z,8.61
2024-03-02T20:14:02.720Z,8.60
2024-03-02T20:17:04.199Z,8.58
2024-03-02T20:20:05.849Z,8.58
2024-03-02T20:23:07.738Z,8.56
2024-03-02T20:26:09.191Z,8.53
2024-03-02T20:29:10.818Z,8.52
2024-03-02T20:32:12.605Z,8.50
2024-03-02T20:35:14.509Z,8.49
2024-03-02T20:38:16.108Z,8.48
2024-03-02T20:41:17.553Z,8.45
2024-03-02T20:44:19.384Z,8.43
2024-03-02T20:47:21.176Z,8.40
2024-03-02T20:50:22.660Z,8.38
2024-03-02T20:53:24.339Z,8.35
2024-03-02T20:56:26.126Z,8.32
2024-03-02T20:59:27.856Z,8.31
2024-03-02T21:02:29.771Z,8.28
2024-03-02T21:05:31.559Z,8.29
2024-03-02T21:08:32.998Z,8.27
2024-03-02T21:11:34.886Z,8.23
2024-03-02T21:14:36.396Z,8.21
2024-03-02T21:17:37.888Z,8.21
2024-03-02T21:20:39.636Z,8.18
2024-03-02T21:23:41.429Z,8.19
2024-03-02T21:26:43.579Z,8.15
2024-03-02T21:29:45.292Z,8.10
2024-03-02T21:32:46.826Z,8.07
2024-03-02T21:35:48.279Z,8.04
2024-03-02T21:38:50.054Z,8.00
2024-03-02T21:41:51.591Z,7.95
2024-03-02T21:44:53.214Z,7.95
2024-03-02T21:47:54.997Z,7.91
2024-03-02T21:50:56.427Z,7.89
2024-03-02T21:53:58.127Z,7.85
2024-03-02T21:56:59.844Z,7.87
2024-03-02T22:00:01.339Z,7.87
2024-03-02T22:03:02.826Z,7.87
2024-03-02T22:06:04.498Z,7.85
2024-03-02T22:09:05.914Z,7.86
2024-03-02T22:12:07.763Z,7.88
2024-03-02T22:15:09.287Z,7.86
2024-03-02T22:18:10.724Z,7.87
2024-03-02T22:21:12.509Z,7.89
2024-03-02T22:24:14.325Z,7.89
2024-03-02T22:27:15.752Z,7.88
2024-03-02T22:30:17.218Z,7.90
2024-03-02T22:33:18.993Z,7.89
2024-03-02T22:36:20.462Z,7.87
2024-03-02T22:39:22.254Z,7.87
2024-03-02T22:42:23.752Z,7.90
2024-03-02T22:45:25.492Z,7.90
2024-03-02T22:48:27.247Z,7.53
2024-03-02T22:51:28.694Z,7.99
2024-03-02T22:54:30.133Z,8.03
2024-03-02T22:57:31.569Z,8.12
2024-03-02T23:00:33.011Z,8.12
2024-03-02T23:03:34.871Z,8.11
2024-03-02T23:06:36.678Z,8.09
2024-03-02T23:09:38.174Z,8.08
2024-03-02T23:12:39.765Z,8.04
2024-03-02T23:15:41.479Z,8.04
2024-03-02T23:18:43.138Z,8.04
2024-03-02T23:21:45.268Z,8.02
2024-03-02T23:24:47.143Z,8.09
2024-03-02T23:27:48.615Z,8.12
2024-03-02T23:30:50.402Z,8.13
2024-03-02T23:33:52.207Z,8.14
2024-03-02T23:36:53.834Z,8.14
2024-03-02T23:39:55.779Z,8.14
2024-03-02T23:42:57.279Z,8.15
2024-03-02T23:45:58.762Z,8.17
2024-03-02T23:49:00.733Z,8.16
2024-03-02T23:52:02.336Z,8.16
2024-03-02T23:55:06.170Z,8.23
2024-03-02T23:58:09.728Z,8.25
